This is the latest recevied weather packets stored in our database for station/object HB9HUT-13. If no packets are shown the sender has not sent any weather packets the latest 10 day(s).
| Time | Temp. | Humidity | Pressure | Rain* | Wind** | Luminosity | Snow |
|---|---|---|---|---|---|---|---|
| 1777905060 | 17.78° C | 31% | 844 hPa | - | - | - | - |
| 1777905060 | 17.78° C | 31% | 844 hPa | - | - | - | - |
| 1777904157 | 18.89° C | 31% | 844.1 hPa | - | - | - | - |
| 1777904157 | 18.89° C | 31% | 844.1 hPa | - | - | - | - |
| 1777903254 | 18.89° C | 30% | 843.9 hPa | - | - | - | - |
| 1777903254 | 18.89° C | 30% | 843.9 hPa | - | - | - | - |
| 1777902351 | 19.44° C | 30% | 843.7 hPa | - | - | - | - |
| 1777902351 | 19.44° C | 30% | 843.7 hPa | - | - | - | - |
| 1777901448 | 21.11° C | 31% | 843.8 hPa | - | - | - | - |
| 1777901448 | 21.11° C | 31% | 843.8 hPa | - | - | - | - |
| 1777900545 | 22.22° C | 33% | 843.9 hPa | - | - | - | - |
| 1777899642 | 22.78° C | 35% | 844 hPa | - | - | - | - |
| 1777899642 | 22.78° C | 35% | 844 hPa | - | - | - | - |
| 1777898739 | 22.22° C | 34% | 844 hPa | - | - | - | - |
| 1777897836 | 21.67° C | 35% | 844.1 hPa | - | - | - | - |
| 1777897836 | 21.67° C | 35% | 844.1 hPa | - | - | - | - |
| 1777896933 | 21.11° C | 35% | 844 hPa | - | - | - | - |
| 1777896030 | 20.56° C | 34% | 843.8 hPa | - | - | - | - |
| 1777896030 | 20.56° C | 34% | 843.8 hPa | - | - | - | - |
| 1777895127 | 21.11° C | 34% | 843.9 hPa | - | - | - | - |
| 1777894224 | 21.11° C | 35% | 844.1 hPa | - | - | - | - |
| 1777893321 | 21.11° C | 33% | 843.8 hPa | - | - | - | - |
| 1777892418 | 21.67° C | 37% | 844.1 hPa | - | - | - | - |
| 1777891515 | 21.11° C | 37% | 844.3 hPa | - | - | - | - |
| 1777890612 | 20° C | 38% | 844.4 hPa | - | - | - | - |
* Rain since midnight (hover to see other rain measurements)
** Current wind speed in m/s (hover to see current wind gust speed)